createdAt,value
2023-03-20T00:02:22.462Z,100311.04
2023-03-20T00:04:55.690Z,100309.42
2023-03-20T00:07:24.943Z,100301.98
2023-03-20T00:10:02.048Z,100305.30
2023-03-20T00:12:50.118Z,100298.29
2023-03-20T00:15:24.941Z,100296.94
2023-03-20T00:17:53.596Z,100292.87
2023-03-20T00:20:31.565Z,100290.76
2023-03-20T00:22:59.984Z,100291.98
2023-03-20T00:25:29.835Z,100290.24
2023-03-20T00:28:04.632Z,100295.32
2023-03-20T00:30:35.568Z,100294.60
2023-03-20T00:33:03.865Z,100286.66
2023-03-20T00:35:33.539Z,100279.46
2023-03-20T00:38:03.909Z,100276.31
2023-03-20T00:40:35.961Z,100280.95
2023-03-20T00:43:05.091Z,100280.17
2023-03-20T00:45:34.329Z,100280.23
2023-03-20T00:48:03.709Z,100277.79
2023-03-20T00:50:32.136Z,100278.92
2023-03-20T00:53:01.872Z,100277.69
2023-03-20T00:55:30.570Z,100277.79
2023-03-20T00:58:01.436Z,100275.91
2023-03-20T01:00:40.508Z,100273.00
2023-03-20T01:03:12.491Z,100277.46
2023-03-20T01:05:40.981Z,100276.51
2023-03-20T01:08:21.136Z,100276.48
2023-03-20T01:10:52.470Z,100280.27
2023-03-20T01:13:23.109Z,100277.27
2023-03-20T01:15:52.653Z,100275.33
2023-03-20T01:18:21.945Z,100279.95
2023-03-20T01:20:53.091Z,100280.02
2023-03-20T01:23:23.191Z,100280.52
2023-03-20T01:25:54.750Z,100280.73
2023-03-20T01:28:23.945Z,100275.23
2023-03-20T01:30:52.862Z,100270.86
2023-03-20T01:33:41.723Z,100267.63
2023-03-20T01:36:13.487Z,100265.04
2023-03-20T01:38:41.841Z,100267.13
2023-03-20T01:41:14.956Z,100270.54
2023-03-20T01:43:44.242Z,100271.98
2023-03-20T01:46:25.245Z,100272.17
2023-03-20T01:49:01.745Z,100268.45
2023-03-20T01:51:33.086Z,100271.53
2023-03-20T01:54:18.497Z,100274.22
2023-03-20T01:57:12.399Z,100274.73
2023-03-20T01:59:52.619Z,100274.48
2023-03-20T02:02:23.052Z,100279.66
2023-03-20T02:04:56.162Z,100278.23
2023-03-20T02:07:24.416Z,100272.41
2023-03-20T02:10:11.365Z,100271.80
2023-03-20T02:12:58.536Z,100270.09
2023-03-20T02:15:34.699Z,100269.89
2023-03-20T02:18:15.563Z,100274.79
2023-03-20T02:21:02.404Z,100270.59
2023-03-20T02:24:00.424Z,100274.69
2023-03-20T02:26:49.104Z,100273.12
2023-03-20T02:29:55.726Z,100273.01
2023-03-20T02:32:36.372Z,100272.14
2023-03-20T02:35:07.242Z,100271.14
2023-03-20T02:37:38.297Z,100274.38
2023-03-20T02:40:35.103Z,100272.82
2023-03-20T02:43:26.320Z,100273.02
2023-03-20T02:46:09.958Z,100273.98
2023-03-20T02:48:52.077Z,100273.86
2023-03-20T02:52:03.498Z,100274.86
2023-03-20T02:54:45.348Z,100278.77
2023-03-20T02:57:18.204Z,100278.69
2023-03-20T03:00:15.393Z,100278.10
2023-03-20T03:02:54.227Z,100275.80
2023-03-20T03:05:27.743Z,100268.23
2023-03-20T03:07:56.854Z,100268.00
2023-03-20T03:10:37.201Z,100262.25
2023-03-20T03:13:06.359Z,100266.33
2023-03-20T03:15:36.565Z,100262.50
2023-03-20T03:18:07.752Z,100265.06
2023-03-20T03:20:38.130Z,100265.46
2023-03-20T03:23:06.868Z,100265.64
2023-03-20T03:25:38.463Z,100263.54
2023-03-20T03:28:24.658Z,100264.21
2023-03-20T03:30:54.018Z,100260.71
2023-03-20T03:33:30.628Z,100265.27
2023-03-20T03:36:06.278Z,100264.27
2023-03-20T03:38:59.410Z,100262.75
2023-03-20T03:41:30.654Z,100268.46
2023-03-20T03:44:11.671Z,100271.27
2023-03-20T03:46:39.880Z,100271.34
2023-03-20T03:49:09.091Z,100272.88
2023-03-20T03:51:39.980Z,100273.83
2023-03-20T03:54:16.439Z,100275.17
2023-03-20T03:56:45.415Z,100273.13
2023-03-20T03:59:26.637Z,100279.24
2023-03-20T04:01:55.179Z,100281.55
2023-03-20T04:04:23.582Z,100277.54
2023-03-20T04:06:52.873Z,100272.52
2023-03-20T04:09:21.131Z,100271.63
2023-03-20T04:11:53.638Z,100272.78
2023-03-20T04:14:22.005Z,100274.11
2023-03-20T04:16:50.348Z,100274.63
2023-03-20T04:19:24.299Z,100278.18
2023-03-20T04:21:52.892Z,100282.28
2023-03-20T04:24:21.171Z,100281.11
2023-03-20T04:26:49.819Z,100278.25
2023-03-20T04:29:18.551Z,100278.84
2023-03-20T04:32:12.214Z,100278.44
2023-03-20T04:34:56.784Z,100280.48
2023-03-20T04:37:31.633Z,100278.13
2023-03-20T04:40:08.573Z,100275.19
2023-03-20T04:42:37.885Z,100276.34
2023-03-20T04:45:09.747Z,100278.19
2023-03-20T04:47:40.064Z,100278.12
2023-03-20T04:50:09.288Z,100276.42
2023-03-20T04:52:38.469Z,100275.48
2023-03-20T04:55:08.050Z,100276.23
2023-03-20T04:57:37.178Z,100280.64
2023-03-20T05:00:06.810Z,100277.23
2023-03-20T05:02:35.585Z,100279.86
2023-03-20T05:05:05.908Z,100280.25
2023-03-20T05:07:43.963Z,100284.86
2023-03-20T05:10:18.370Z,100282.21
2023-03-20T05:13:01.522Z,100280.27
2023-03-20T05:15:49.692Z,100279.34
2023-03-20T05:18:32.299Z,100280.00
2023-03-20T05:21:18.869Z,100285.89
2023-03-20T05:24:06.165Z,100286.61
2023-03-20T05:26:37.285Z,100289.73
2023-03-20T05:29:24.194Z,100284.02
2023-03-20T05:32:13.016Z,100279.07
2023-03-20T05:35:09.263Z,100274.25
2023-03-20T05:37:53.792Z,100271.47
2023-03-20T05:40:55.774Z,100267.24
2023-03-20T05:43:34.239Z,100270.17
2023-03-20T05:46:37.698Z,100273.05
2023-03-20T05:49:24.936Z,100273.27
2023-03-20T05:52:13.070Z,100275.27
2023-03-20T05:54:54.442Z,100272.77
2023-03-20T05:57:37.415Z,100276.45
2023-03-20T06:00:21.947Z,100279.30
2023-03-20T06:03:06.939Z,100282.95
2023-03-20T06:05:48.991Z,100284.50
2023-03-20T06:08:17.738Z,100282.00
2023-03-20T06:10:45.981Z,100286.64
2023-03-20T06:13:14.581Z,100288.40
2023-03-20T06:15:43.418Z,100291.92
2023-03-20T06:18:16.386Z,100292.86
2023-03-20T06:20:57.709Z,100293.67
2023-03-20T06:23:27.003Z,100294.84
2023-03-20T06:25:55.693Z,100295.44
2023-03-20T06:28:24.251Z,100298.13
2023-03-20T06:30:58.731Z,100295.27
2023-03-20T06:33:27.289Z,100296.10
2023-03-20T06:36:02.446Z,100294.86
2023-03-20T06:38:33.083Z,100297.66
2023-03-20T06:41:07.036Z,100294.80
2023-03-20T06:43:35.767Z,100297.62
2023-03-20T06:46:04.956Z,100294.06
2023-03-20T06:48:38.981Z,100290.45
2023-03-20T06:51:09.186Z,100296.63
2023-03-20T06:53:41.876Z,100294.66
2023-03-20T06:56:17.141Z,100296.02
2023-03-20T06:58:46.754Z,100296.14
2023-03-20T07:01:17.366Z,100299.91
2023-03-20T07:03:46.457Z,100299.95
2023-03-20T07:06:15.439Z,100303.59
2023-03-20T07:08:45.722Z,100303.66
2023-03-20T07:11:15.716Z,100307.23
2023-03-20T07:13:51.526Z,100304.64
2023-03-20T07:16:42.210Z,100303.70
2023-03-20T07:19:11.319Z,100302.92
2023-03-20T07:21:46.569Z,100297.13
2023-03-20T07:24:15.851Z,100297.23
2023-03-20T07:26:44.426Z,100298.54
2023-03-20T07:29:14.106Z,100295.06
2023-03-20T07:31:42.488Z,100297.40
2023-03-20T07:34:26.629Z,100303.51
2023-03-20T07:36:56.844Z,100303.51
2023-03-20T07:39:25.181Z,100308.81
2023-03-20T07:42:16.805Z,100310.81
2023-03-20T07:44:51.678Z,100303.56
2023-03-20T07:47:20.095Z,100302.27
2023-03-20T07:49:48.814Z,100304.95
2023-03-20T07:52:19.843Z,100305.69
2023-03-20T07:54:48.074Z,100303.57
2023-03-20T07:57:21.643Z,100302.50
2023-03-20T08:00:12.750Z,100306.54
2023-03-20T08:02:41.537Z,100305.50
2023-03-20T08:05:11.384Z,100303.05
2023-03-20T08:07:41.126Z,100302.38
2023-03-20T08:10:10.041Z,100302.34
2023-03-20T08:12:39.048Z,100301.00
2023-03-20T08:15:08.182Z,100300.34
2023-03-20T08:17:36.409Z,100300.94
2023-03-20T08:20:05.137Z,100298.54
2023-03-20T08:22:33.823Z,100289.61
2023-03-20T08:25:02.001Z,100290.93
2023-03-20T08:27:31.247Z,100292.63
2023-03-20T08:29:59.722Z,100296.41
2023-03-20T08:32:27.975Z,100293.98
2023-03-20T08:34:56.252Z,100299.83
2023-03-20T08:37:24.660Z,100299.88
2023-03-20T08:39:53.228Z,100296.94
2023-03-20T08:42:25.006Z,100296.87
2023-03-20T08:44:53.499Z,100296.97
2023-03-20T08:47:22.582Z,100295.94
2023-03-20T08:49:50.995Z,100296.36
2023-03-20T08:52:19.243Z,100296.61
2023-03-20T08:54:47.759Z,100295.46
2023-03-20T08:57:37.391Z,100298.95
2023-03-20T09:00:08.308Z,100294.11
2023-03-20T09:02:37.068Z,100290.80
2023-03-20T09:05:06.200Z,100286.76
2023-03-20T09:07:34.968Z,100287.61
2023-03-20T09:10:04.513Z,100287.48
2023-03-20T09:12:34.268Z,100284.38
2023-03-20T09:15:03.051Z,100282.98
2023-03-20T09:17:33.203Z,100280.13
2023-03-20T09:20:01.387Z,100277.84
2023-03-20T09:22:41.334Z,100268.14
2023-03-20T09:25:09.936Z,100267.79
2023-03-20T09:27:39.062Z,100268.46
2023-03-20T09:30:08.185Z,100261.83
2023-03-20T09:32:41.964Z,100258.87
2023-03-20T09:35:10.358Z,100258.27
2023-03-20T09:37:38.985Z,100254.90
2023-03-20T09:40:08.018Z,100257.38
2023-03-20T09:42:53.275Z,100253.64
2023-03-20T09:45:33.189Z,100251.98
2023-03-20T09:48:16.201Z,100247.98
2023-03-20T09:50:50.519Z,100246.93
2023-03-20T09:53:34.771Z,100244.81
2023-03-20T09:56:03.046Z,100244.48
2023-03-20T09:58:33.887Z,100247.04
2023-03-20T10:01:04.945Z,100252.71
2023-03-20T10:04:04.485Z,100250.16
2023-03-20T10:06:32.700Z,100248.94
2023-03-20T10:09:01.088Z,100242.48
2023-03-20T10:11:50.605Z,100241.31
2023-03-20T10:14:38.002Z,100238.35
2023-03-20T10:17:15.540Z,100239.80
2023-03-20T10:19:56.949Z,100237.15
2023-03-20T10:22:36.101Z,100232.71
2023-03-20T10:25:14.669Z,100225.77
2023-03-20T10:27:44.645Z,100219.87
2023-03-20T10:30:22.771Z,100217.98
2023-03-20T10:33:26.964Z,100224.63
2023-03-20T10:36:14.180Z,100223.13
2023-03-20T10:38:57.401Z,100216.42
2023-03-20T10:41:32.595Z,100213.74
2023-03-20T10:44:03.837Z,100208.30
2023-03-20T10:46:35.279Z,100208.04
2023-03-20T10:49:21.214Z,100205.73
2023-03-20T10:52:00.309Z,100199.53
2023-03-20T10:54:31.464Z,100201.08
2023-03-20T10:57:00.859Z,100200.14
2023-03-20T10:59:34.676Z,100201.66
2023-03-20T11:02:12.505Z,100196.05
2023-03-20T11:04:40.804Z,100195.29
2023-03-20T11:07:27.965Z,100191.13
2023-03-20T11:10:06.718Z,100186.66
2023-03-20T11:12:42.008Z,100181.77
2023-03-20T11:15:32.516Z,100180.23
2023-03-20T11:18:03.232Z,100182.70
2023-03-20T11:20:37.697Z,100178.39
2023-03-20T11:23:10.563Z,100175.42
2023-03-20T11:25:48.258Z,100171.45
2023-03-20T11:28:36.772Z,100169.37
2023-03-20T11:31:24.953Z,100169.82
2023-03-20T11:34:11.325Z,100168.89
2023-03-20T11:36:41.385Z,100164.91
2023-03-20T11:39:10.616Z,100159.24
2023-03-20T11:41:45.592Z,100157.84
2023-03-20T11:44:27.278Z,100154.52
2023-03-20T11:47:05.613Z,100151.25
2023-03-20T11:49:45.792Z,100150.20
2023-03-20T11:52:15.317Z,100155.20
2023-03-20T11:54:48.507Z,100151.21
2023-03-20T11:57:36.374Z,100149.21
2023-03-20T12:00:25.637Z,100155.84
2023-03-20T12:02:57.926Z,100152.86
2023-03-20T12:05:37.400Z,100148.73
2023-03-20T12:08:08.358Z,100154.19
2023-03-20T12:10:43.009Z,100153.11
2023-03-20T12:28:11.181Z,100138.70
2023-03-20T12:31:18.270Z,100133.41
2023-03-20T12:34:01.549Z,100132.42
2023-03-20T12:36:49.328Z,100128.39
2023-03-20T12:39:29.562Z,100128.39
2023-03-20T12:42:25.672Z,100125.38
2023-03-20T12:45:01.029Z,100126.61
2023-03-20T12:47:39.938Z,100125.89
2023-03-20T12:50:21.771Z,100128.21
2023-03-20T12:52:57.046Z,100123.64
2023-03-20T12:55:29.956Z,100124.87
2023-03-20T12:58:24.387Z,100130.12
2023-03-20T13:00:55.500Z,100133.09
2023-03-20T13:03:41.749Z,100129.55
2023-03-20T13:06:31.358Z,100125.20
2023-03-20T13:09:05.777Z,100121.52
2023-03-20T13:11:46.092Z,100124.34
2023-03-20T13:14:22.611Z,100119.90
2023-03-20T13:16:52.681Z,100115.88
2023-03-20T13:20:08.752Z,100110.70
2023-03-20T13:22:53.267Z,100110.27
2023-03-20T13:25:54.027Z,100114.75
2023-03-20T13:28:31.026Z,100112.77
2023-03-20T13:31:34.315Z,100110.83
2023-03-20T13:34:27.284Z,100110.15
2023-03-20T13:37:21.902Z,100108.46
2023-03-20T13:40:06.391Z,100107.81
2023-03-20T13:42:54.291Z,100108.91
2023-03-20T13:45:25.642Z,100108.85
2023-03-20T13:47:54.347Z,100107.27
2023-03-20T13:50:45.632Z,100105.94
2023-03-20T13:53:20.153Z,100102.15
2023-03-20T13:56:08.256Z,100103.42
2023-03-20T13:58:49.890Z,100097.26
2023-03-20T14:01:23.647Z,100092.05
2023-03-20T14:03:52.299Z,100096.16
2023-03-20T14:06:23.510Z,100093.98
2023-03-20T14:08:55.788Z,100090.14
2023-03-20T14:11:24.306Z,100087.79
2023-03-20T14:13:55.930Z,100087.45
2023-03-20T14:16:24.202Z,100081.82
2023-03-20T14:19:24.497Z,100078.45
2023-03-20T14:21:54.496Z,100079.28
2023-03-20T14:24:23.540Z,100079.45
2023-03-20T14:26:59.542Z,100071.73
2023-03-20T14:29:37.299Z,100072.56
2023-03-20T14:32:27.577Z,100067.92
2023-03-20T14:35:21.751Z,100073.46
2023-03-20T14:38:05.074Z,100069.41
2023-03-20T14:40:35.393Z,100069.95
2023-03-20T14:43:16.164Z,100067.56
2023-03-20T14:46:03.789Z,100066.52
2023-03-20T14:48:35.658Z,100070.48
2023-03-20T14:51:08.750Z,100073.30
2023-03-20T14:53:37.327Z,100071.73
2023-03-20T14:56:10.111Z,100069.66
2023-03-20T14:58:58.038Z,100068.84
2023-03-20T15:01:28.621Z,100063.21
2023-03-20T15:03:58.012Z,100064.36
2023-03-20T15:06:27.713Z,100067.81
2023-03-20T15:09:01.010Z,100066.79
2023-03-20T15:11:33.902Z,100067.70
2023-03-20T15:14:06.965Z,100070.71
2023-03-20T15:16:36.938Z,100070.19
2023-03-20T15:19:17.341Z,100070.77
2023-03-20T15:21:49.421Z,100073.43
2023-03-20T15:24:26.292Z,100071.86
2023-03-20T15:26:56.131Z,100074.29
2023-03-20T15:29:24.538Z,100079.59
2023-03-20T15:32:12.509Z,100078.98
2023-03-20T15:34:44.626Z,100084.86
2023-03-20T15:37:15.763Z,100087.28
2023-03-20T15:39:49.234Z,100090.89
2023-03-20T15:42:20.585Z,100092.94
2023-03-20T15:44:49.741Z,100089.29
2023-03-20T15:47:21.240Z,100089.91
2023-03-20T15:49:57.230Z,100090.67
2023-03-20T15:52:33.286Z,100093.46
2023-03-20T15:55:05.177Z,100090.60
2023-03-20T15:57:38.717Z,100091.78
2023-03-20T16:00:18.321Z,100093.30
2023-03-20T16:02:48.512Z,100091.59
2023-03-20T16:05:17.454Z,100092.34
2023-03-20T16:07:45.869Z,100092.89
2023-03-20T16:10:19.162Z,100097.46
2023-03-20T16:12:53.074Z,100099.17
2023-03-20T16:15:25.764Z,100099.58
2023-03-20T16:17:55.957Z,100101.55
2023-03-20T16:20:24.173Z,100100.27
2023-03-20T16:22:53.146Z,100101.96
2023-03-20T16:25:21.429Z,100099.03
2023-03-20T16:27:50.865Z,100098.32
2023-03-20T16:30:24.043Z,100101.67
2023-03-20T16:33:06.734Z,100101.52
2023-03-20T16:35:49.330Z,100100.73
2023-03-20T16:38:20.891Z,100101.76
2023-03-20T16:40:50.527Z,100099.89
2023-03-20T16:43:20.733Z,100095.91
2023-03-20T16:45:52.849Z,100092.06
2023-03-20T16:48:24.871Z,100087.98
2023-03-20T16:51:01.370Z,100087.59
2023-03-20T16:53:36.068Z,100082.63
2023-03-20T16:56:05.296Z,100083.33
2023-03-20T16:58:35.426Z,100083.51
2023-03-20T17:01:09.976Z,100083.91
2023-03-20T17:03:48.370Z,100086.50
2023-03-20T17:06:19.896Z,100087.69
2023-03-20T17:08:49.424Z,100088.42
2023-03-20T17:11:23.562Z,100092.11
2023-03-20T17:13:56.179Z,100098.81
2023-03-20T17:16:25.070Z,100096.77
2023-03-20T17:19:10.597Z,100105.38
2023-03-20T17:21:38.761Z,100109.52
2023-03-20T17:24:07.433Z,100109.75
2023-03-20T17:26:36.141Z,100111.63
2023-03-20T17:29:04.903Z,100114.06
2023-03-20T17:31:33.156Z,100118.84
2023-03-20T17:34:01.477Z,100123.40
2023-03-20T17:36:34.555Z,100121.46
2023-03-20T17:39:02.948Z,100114.11
2023-03-20T17:41:31.234Z,100114.23
2023-03-20T17:43:59.518Z,100112.85
2023-03-20T17:46:29.932Z,100112.23
2023-03-20T17:49:00.937Z,100109.27
2023-03-20T17:51:29.724Z,100105.45
2023-03-20T17:53:58.152Z,100109.02
2023-03-20T17:56:32.747Z,100105.81
2023-03-20T17:59:01.982Z,100108.06
2023-03-20T18:01:32.747Z,100106.56
2023-03-20T18:04:01.352Z,100105.35
2023-03-20T18:06:32.865Z,100104.73
2023-03-20T18:09:02.489Z,100106.06
2023-03-20T18:11:33.521Z,100107.51
2023-03-20T18:14:06.836Z,100105.69
2023-03-20T18:16:35.721Z,100101.73
2023-03-20T18:19:03.875Z,100099.88
2023-03-20T18:21:34.623Z,100098.92
2023-03-20T18:24:02.902Z,100101.26
2023-03-20T18:26:34.889Z,100099.26
2023-03-20T18:29:03.356Z,100098.08
2023-03-20T18:31:31.492Z,100098.58
2023-03-20T18:33:59.918Z,100099.34
2023-03-20T18:36:28.929Z,100100.08
2023-03-20T18:38:57.413Z,100097.57
2023-03-20T18:41:25.685Z,100099.19
2023-03-20T18:43:55.726Z,100097.41
2023-03-20T18:46:24.728Z,100098.48
2023-03-20T18:49:01.036Z,100097.46
2023-03-20T18:51:29.633Z,100093.73
2023-03-20T18:53:57.973Z,100090.05
2023-03-20T18:56:27.141Z,100091.23
2023-03-20T18:58:55.432Z,100085.41
2023-03-20T19:01:23.722Z,100086.17
2023-03-20T19:03:53.896Z,100086.65
2023-03-20T19:06:23.538Z,100083.80
2023-03-20T19:08:52.202Z,100081.84
2023-03-20T19:11:21.796Z,100074.27
2023-03-20T19:13:53.402Z,100069.86
2023-03-20T19:16:25.765Z,100067.73
2023-03-20T19:18:55.418Z,100069.27
2023-03-20T19:21:26.544Z,100068.38
2023-03-20T19:23:59.242Z,100070.30
2023-03-20T19:26:29.418Z,100065.25
2023-03-20T19:28:58.860Z,100062.08
2023-03-20T19:31:29.200Z,100064.74
2023-03-20T19:34:01.619Z,100066.09
2023-03-20T19:36:34.603Z,100067.73
2023-03-20T19:39:04.180Z,100070.96
2023-03-20T19:41:33.045Z,100074.10
2023-03-20T19:44:01.699Z,100076.67
2023-03-20T19:46:40.071Z,100077.30
2023-03-20T19:49:20.161Z,100080.68
2023-03-20T19:51:49.217Z,100082.98
2023-03-20T19:54:17.825Z,100080.48
2023-03-20T19:56:46.386Z,100080.70
2023-03-20T19:59:17.136Z,100078.14
2023-03-20T20:01:46.219Z,100073.50
2023-03-20T20:04:15.603Z,100070.39
2023-03-20T20:06:47.394Z,100074.35
2023-03-20T20:09:16.360Z,100070.23
2023-03-20T20:11:44.469Z,100072.23
2023-03-20T20:14:14.830Z,100068.52
2023-03-20T20:16:45.847Z,100067.68
2023-03-20T20:19:21.655Z,100066.58
2023-03-20T20:24:38.178Z,100059.84
2023-03-20T20:27:17.559Z,100050.46
2023-03-20T20:29:51.417Z,100047.43
2023-03-20T20:32:24.049Z,100047.77
2023-03-20T20:40:33.198Z,100034.39
2023-03-20T20:43:02.416Z,100031.86
2023-03-20T20:45:43.590Z,100035.49
2023-03-20T20:48:12.843Z,100037.02
2023-03-20T20:50:43.461Z,100039.21
2023-03-20T20:53:14.208Z,100038.23
2023-03-20T20:55:42.979Z,100042.47
2023-03-20T20:58:12.207Z,100033.52
2023-03-20T21:00:51.224Z,100029.47
2023-03-20T21:03:22.228Z,100024.17
2023-03-20T21:05:52.678Z,100028.06
2023-03-20T21:08:21.821Z,100025.43
2023-03-20T21:10:55.459Z,100020.44
2023-03-20T21:13:24.530Z,100022.69
2023-03-20T21:16:00.224Z,100018.77
2023-03-20T21:18:28.960Z,100018.95
2023-03-20T21:21:08.288Z,100016.87
2023-03-20T21:23:36.557Z,100014.55
2023-03-20T21:26:09.511Z,100016.27
2023-03-20T21:28:38.036Z,100008.83
2023-03-20T21:31:23.914Z,100006.58
2023-03-20T21:33:54.553Z,100003.08
2023-03-20T21:36:23.386Z,99999.62
2023-03-20T21:39:09.082Z,100004.43
2023-03-20T21:41:38.327Z,100007.45
2023-03-20T21:44:07.661Z,100007.20
2023-03-20T21:50:23.279Z,100010.35
2023-03-20T21:55:45.888Z,100014.18
2023-03-20T21:58:36.648Z,100014.94
2023-03-20T22:07:23.898Z,100011.46
2023-03-20T22:12:46.909Z,100007.27
2023-03-20T22:15:29.211Z,100005.17
2023-03-20T22:18:19.230Z,100001.21
2023-03-20T22:35:38.462Z,100001.84
2023-03-20T22:46:16.873Z,100002.88
2023-03-20T22:48:50.266Z,100003.63
2023-03-20T22:51:22.615Z,100002.66
2023-03-20T22:53:53.761Z,100004.38
2023-03-20T22:56:22.393Z,99997.51
2023-03-20T22:58:50.643Z,99994.89
2023-03-20T23:01:20.596Z,99989.73
2023-03-20T23:03:49.249Z,99993.89
2023-03-20T23:06:21.810Z,99993.60
2023-03-20T23:08:55.372Z,99995.54
2023-03-20T23:11:26.381Z,99992.94
2023-03-20T23:14:08.760Z,99994.31
2023-03-20T23:16:41.886Z,99996.49
2023-03-20T23:19:10.249Z,99998.14
2023-03-20T23:21:38.390Z,99993.33
2023-03-20T23:24:07.459Z,99987.36
2023-03-20T23:26:35.760Z,99985.02
2023-03-20T23:29:04.193Z,99979.72
2023-03-20T23:31:32.812Z,99975.46
2023-03-20T23:39:12.229Z,99974.48
2023-03-20T23:44:30.522Z,99972.27
2023-03-20T23:47:01.339Z,99973.35
2023-03-20T23:49:32.294Z,99968.66
2023-03-20T23:52:04.450Z,99968.00
2023-03-20T23:54:32.653Z,99965.28
2023-03-20T23:57:01.059Z,99959.48
2023-03-20T23:59:30.658Z,99952.90
